Time;durP1;ratioP1;P1;durP2;ratioP2;P2;SDS_P1;SDS_P2;PMS_P1;PMS_P2;Temp;Humidity;BMP_temperature;BMP_pressure;BME280_temperature;BME280_humidity;BME280_pressure;Samples;Min_cycle;Max_cycle;Signal;HPM_P1;HPM_P2
2023/04/09 00:02:20;;;;;;;27.30;11.25;;;;;;;;;;5061893;28;20021;-64
2023/04/09 00:04:46;;;;;;;22.75;10.30;;;;;;;;;;5051587;28;20482;-63
2023/04/09 00:07:11;;;;;;;29.35;11.52;;;;;;;;;;5054814;28;20025;-64
2023/04/09 00:09:37;;;;;;;26.17;10.00;;;;;;;;;;5036922;28;20428;-66
2023/04/09 00:12:02;;;;;;;27.45;10.75;;;;;;;;;;5055013;28;20035;-69
2023/04/09 00:14:28;;;;;;;27.17;11.15;;;;;;;;;;5055122;28;20029;-65
2023/04/09 00:16:53;;;;;;;28.35;11.95;;;;;;;;;;5054830;28;20040;-64
2023/04/09 00:19:19;;;;;;;31.52;11.52;;;;;;;;;;5054900;28;20060;-63
2023/04/09 00:21:45;;;;;;;27.58;11.70;;;;;;;;;;5054825;28;20029;-70
2023/04/09 00:24:10;;;;;;;25.27;10.85;;;;;;;;;;5054652;28;20074;-65
2023/04/09 00:26:36;;;;;;;27.55;10.45;;;;;;;;;;5054729;28;20017;-69
2023/04/09 00:29:01;;;;;;;29.63;11.32;;;;;;;;;;5054620;28;20040;-67
2023/04/09 00:31:26;;;;;;;27.40;11.02;;;;;;;;;;5054474;28;20029;-63
2023/04/09 00:33:52;;;;;;;24.55;10.95;;;;;;;;;;5054601;28;20025;-67
2023/04/09 00:36:17;;;;;;;32.08;10.90;;;;;;;;;;5036644;28;20159;-63
2023/04/09 00:38:43;;;;;;;32.05;11.93;;;;;;;;;;5054112;28;20086;-65
2023/04/09 00:41:09;;;;;;;25.35;10.90;;;;;;;;;;5054512;28;20031;-63
2023/04/09 00:43:34;;;;;;;26.38;10.52;;;;;;;;;;5054330;28;20387;-63
2023/04/09 00:46:00;;;;;;;24.55;10.07;;;;;;;;;;5054374;28;20472;-67
2023/04/09 00:48:26;;;;;;;27.60;11.10;;;;;;;;;;5054264;28;20434;-63
2023/04/09 00:50:52;;;;;;;24.58;11.10;;;;;;;;;;5054130;28;20025;-67
2023/04/09 00:53:17;;;;;;;25.92;11.00;;;;;;;;;;5054019;28;20031;-64
2023/04/09 00:55:44;;;;;;;28.58;11.00;;;;;;;;;;5054148;28;20017;-69
2023/04/09 00:58:10;;;;;;;24.83;10.48;;;;;;;;;;5063680;28;20028;-63
2023/04/09 01:00:35;;;;;;;29.98;11.52;;;;;;;;;;5073980;28;20055;-63
2023/04/09 01:03:01;;;;;;;30.15;11.38;;;;;;;;;;5058760;28;20082;-68
2023/04/09 01:05:37;;;;;;;23.65;9.70;;;;;;;;;;5053975;28;20021;-68
2023/04/09 01:08:20;;;;;;;32.03;13.38;;;;;;;;;;5053720;28;20029;-68
2023/04/09 01:11:14;;;;;;;26.55;10.95;;;;;;;;;;5053884;28;20037;-76
2023/04/09 01:14:00;;;;;;;29.42;11.10;;;;;;;;;;5053319;28;20032;-77
2023/04/09 01:16:29;;;;;;;26.45;11.80;;;;;;;;;;5052437;28;20017;-76
2023/04/09 01:19:16;;;;;;;22.35;10.70;;;;;;;;;;5053491;28;20025;-69
2023/04/09 01:21:43;;;;;;;32.08;12.10;;;;;;;;;;5052103;28;20043;-72
2023/04/09 01:24:41;;;;;;;27.17;12.73;;;;;;;;;;5053103;28;20029;-77
2023/04/09 01:27:08;;;;;;;30.33;12.63;;;;;;;;;;5052865;28;20422;-77
2023/04/09 01:29:38;;;;;;;23.77;10.90;;;;;;;;;;5052501;28;20048;-74
2023/04/09 01:32:05;;;;;;;29.00;11.23;;;;;;;;;;5052601;28;20028;-74
2023/04/09 01:34:31;;;;;;;27.92;11.43;;;;;;;;;;5050412;28;20033;-69
2023/04/09 01:36:59;;;;;;;28.77;12.23;;;;;;;;;;5052818;28;20029;-70
2023/04/09 01:39:26;;;;;;;33.45;12.45;;;;;;;;;;5052818;28;20067;-74
2023/04/09 01:41:52;;;;;;;24.73;10.85;;;;;;;;;;5050159;28;20048;-73
2023/04/09 01:44:18;;;;;;;24.73;12.02;;;;;;;;;;5053303;28;20035;-77
2023/04/09 01:46:46;;;;;;;23.75;11.32;;;;;;;;;;5053256;28;20529;-71
2023/04/09 01:49:11;;;;;;;26.08;11.30;;;;;;;;;;5053103;28;20091;-64
2023/04/09 01:51:37;;;;;;;35.33;12.18;;;;;;;;;;5053109;28;20033;-64
2023/04/09 01:54:03;;;;;;;26.25;11.80;;;;;;;;;;5052867;28;20090;-62
2023/04/09 01:56:45;;;;;;;27.13;11.00;;;;;;;;;;5053531;28;20025;-62
2023/04/09 01:59:11;;;;;;;23.10;11.32;;;;;;;;;;5070849;28;20445;-62
2023/04/09 02:01:42;;;;;;;28.55;12.10;;;;;;;;;;5072914;28;20032;-62
2023/04/09 02:04:23;;;;;;;24.17;11.00;;;;;;;;;;5072771;28;20029;-62
2023/04/09 02:06:56;;;;;;;23.00;10.82;;;;;;;;;;5072669;28;20112;-63
2023/04/09 02:09:23;;;;;;;29.10;11.00;;;;;;;;;;5072747;28;20083;-65
2023/04/09 02:11:50;;;;;;;26.65;10.88;;;;;;;;;;5072561;28;20051;-66
2023/04/09 02:14:17;;;;;;;32.05;12.88;;;;;;;;;;5072712;28;20372;-64
2023/04/09 02:16:43;;;;;;;26.90;10.73;;;;;;;;;;5072666;28;20489;-64
2023/04/09 02:19:08;;;;;;;27.00;11.63;;;;;;;;;;5072486;28;20147;-64
2023/04/09 02:21:34;;;;;;;25.95;11.85;;;;;;;;;;5072314;28;20025;-66
2023/04/09 02:23:59;;;;;;;23.83;11.55;;;;;;;;;;5072444;28;20339;-65
2023/04/09 02:26:25;;;;;;;31.23;12.65;;;;;;;;;;5072508;28;20017;-66
2023/04/09 02:28:50;;;;;;;28.50;12.43;;;;;;;;;;5071762;28;20037;-63
2023/04/09 02:31:16;;;;;;;30.83;12.15;;;;;;;;;;5072331;28;20043;-62
2023/04/09 02:33:41;;;;;;;45.88;11.35;;;;;;;;;;5072268;28;20428;-62
2023/04/09 02:36:11;;;;;;;24.88;10.93;;;;;;;;;;5072077;28;20020;-63
2023/04/09 02:38:40;;;;;;;38.65;11.45;;;;;;;;;;5072220;28;20552;-62
2023/04/09 02:41:06;;;;;;;32.03;11.82;;;;;;;;;;5072236;28;20036;-62
2023/04/09 02:43:31;;;;;;;24.42;11.07;;;;;;;;;;5072258;28;20029;-62
2023/04/09 02:45:57;;;;;;;23.75;10.60;;;;;;;;;;5071980;28;20021;-63
2023/04/09 02:48:22;;;;;;;34.83;11.75;;;;;;;;;;5071975;28;20082;-65
2023/04/09 02:50:47;;;;;;;23.92;10.50;;;;;;;;;;5072115;28;20525;-64
2023/04/09 02:53:13;;;;;;;24.15;11.63;;;;;;;;;;5072202;28;20020;-62
2023/04/09 02:55:38;;;;;;;25.45;10.77;;;;;;;;;;5072128;28;20055;-65
2023/04/09 02:58:04;;;;;;;32.90;11.80;;;;;;;;;;5071752;28;20049;-65
2023/04/09 03:00:29;;;;;;;35.08;12.48;;;;;;;;;;5072081;28;20044;-65
2023/04/09 03:02:55;;;;;;;33.25;12.30;;;;;;;;;;5072111;28;20031;-63
2023/04/09 03:05:20;;;;;;;29.98;11.90;;;;;;;;;;5071618;28;20506;-62
2023/04/09 03:07:46;;;;;;;26.60;11.20;;;;;;;;;;5071883;28;20024;-65
2023/04/09 03:10:11;;;;;;;43.22;11.95;;;;;;;;;;5055848;28;20451;-67
2023/04/09 03:12:37;;;;;;;32.45;10.40;;;;;;;;;;5051850;28;20021;-65
2023/04/09 03:15:03;;;;;;;28.67;11.40;;;;;;;;;;5052045;28;20127;-65
2023/04/09 03:17:30;;;;;;;31.27;12.52;;;;;;;;;;5051778;28;20024;-66
2023/04/09 03:19:56;;;;;;;40.08;13.85;;;;;;;;;;5051479;28;20364;-62
2023/04/09 03:22:22;;;;;;;28.55;12.15;;;;;;;;;;5051788;28;20028;-63
2023/04/09 03:24:47;;;;;;;40.42;12.05;;;;;;;;;;5051834;28;20032;-62
2023/04/09 03:27:13;;;;;;;27.60;11.85;;;;;;;;;;5051714;28;20061;-65
2023/04/09 03:29:38;;;;;;;30.02;12.32;;;;;;;;;;5051738;28;20028;-63
2023/04/09 03:32:04;;;;;;;39.28;11.73;;;;;;;;;;5051495;28;20055;-63
2023/04/09 03:34:29;;;;;;;26.60;11.88;;;;;;;;;;5051342;28;20030;-65
2023/04/09 03:36:55;;;;;;;41.97;12.98;;;;;;;;;;5051792;28;20080;-63
2023/04/09 03:39:20;;;;;;;36.22;13.63;;;;;;;;;;5052257;28;20041;-71
2023/04/09 03:41:46;;;;;;;33.40;13.63;;;;;;;;;;5055754;28;20074;-74
2023/04/09 03:44:11;;;;;;;32.33;12.30;;;;;;;;;;5055782;28;20028;-75
2023/04/09 03:46:36;;;;;;;35.45;13.43;;;;;;;;;;5037285;28;20021;-75
2023/04/09 03:49:02;;;;;;;37.67;13.02;;;;;;;;;;5055283;28;20032;-75
2023/04/09 03:51:27;;;;;;;33.08;13.05;;;;;;;;;;5055441;28;20029;-76
2023/04/09 03:53:53;;;;;;;32.13;12.07;;;;;;;;;;5055205;28;20033;-76
2023/04/09 03:56:18;;;;;;;29.50;12.27;;;;;;;;;;5055446;28;20036;-75
2023/04/09 03:58:44;;;;;;;39.97;13.52;;;;;;;;;;5069563;28;20032;-76
2023/04/09 04:01:09;;;;;;;32.10;12.50;;;;;;;;;;5075225;28;20490;-73
2023/04/09 04:03:35;;;;;;;35.00;13.10;;;;;;;;;;5075039;28;20119;-75
2023/04/09 04:06:01;;;;;;;33.85;13.02;;;;;;;;;;5075017;28;20482;-72
2023/04/09 04:08:27;;;;;;;36.72;13.55;;;;;;;;;;5075148;28;20052;-68
2023/04/09 04:10:52;;;;;;;34.33;13.48;;;;;;;;;;5075060;28;20056;-64
2023/04/09 04:13:18;;;;;;;31.10;12.43;;;;;;;;;;5075009;28;20108;-63
2023/04/09 04:15:43;;;;;;;33.03;12.63;;;;;;;;;;5074948;28;20127;-64
2023/04/09 04:18:09;;;;;;;29.75;11.95;;;;;;;;;;5074822;28;20523;-77
2023/04/09 04:20:36;;;;;;;28.80;11.82;;;;;;;;;;5074977;28;20518;-66
2023/04/09 04:23:02;;;;;;;27.65;12.15;;;;;;;;;;5074826;28;20032;-72
2023/04/09 04:25:28;;;;;;;27.30;11.55;;;;;;;;;;5074932;28;20074;-74
2023/04/09 04:27:54;;;;;;;28.35;11.65;;;;;;;;;;5074754;28;20033;-71
2023/04/09 04:30:20;;;;;;;29.73;11.57;;;;;;;;;;5074778;28;20116;-75
2023/04/09 04:32:46;;;;;;;31.17;11.63;;;;;;;;;;5074680;28;20052;-67
2023/04/09 04:35:11;;;;;;;30.98;12.60;;;;;;;;;;5074645;28;20435;-66
2023/04/09 04:37:37;;;;;;;28.15;11.35;;;;;;;;;;5074622;28;20055;-64
2023/04/09 04:40:04;;;;;;;28.80;12.15;;;;;;;;;;5074521;28;20498;-70
2023/04/09 04:42:29;;;;;;;29.98;11.48;;;;;;;;;;5074519;28;20025;-69
2023/04/09 04:44:55;;;;;;;30.70;11.98;;;;;;;;;;5074498;28;20028;-65
2023/04/09 04:47:20;;;;;;;28.15;11.02;;;;;;;;;;5074218;28;20498;-64
2023/04/09 04:49:46;;;;;;;29.15;11.60;;;;;;;;;;5074335;28;20423;-68
2023/04/09 04:52:11;;;;;;;30.90;11.82;;;;;;;;;;5074159;28;20031;-65
2023/04/09 04:54:37;;;;;;;28.77;11.15;;;;;;;;;;5074546;28;20028;-64
2023/04/09 04:57:02;;;;;;;32.58;12.23;;;;;;;;;;5074124;28;20028;-65
2023/04/09 04:59:28;;;;;;;30.10;11.60;;;;;;;;;;5074228;28;20045;-64
2023/04/09 05:01:54;;;;;;;36.05;13.25;;;;;;;;;;5074064;28;20032;-68
2023/04/09 05:04:19;;;;;;;36.97;13.02;;;;;;;;;;5074249;28;20021;-65
2023/04/09 05:06:45;;;;;;;34.90;13.32;;;;;;;;;;5074231;28;20108;-64
2023/04/09 05:09:10;;;;;;;34.03;11.80;;;;;;;;;;5073946;28;20052;-64
2023/04/09 05:11:36;;;;;;;44.88;11.98;;;;;;;;;;5073974;28;20028;-66
2023/04/09 05:14:01;;;;;;;32.85;11.45;;;;;;;;;;5073959;28;20043;-65
2023/04/09 05:16:27;;;;;;;39.08;12.18;;;;;;;;;;5073850;28;20024;-66
2023/04/09 05:18:52;;;;;;;38.88;12.77;;;;;;;;;;5073828;28;20028;-64
2023/04/09 05:21:18;;;;;;;37.58;11.30;;;;;;;;;;5073349;28;20020;-64
2023/04/09 05:23:43;;;;;;;46.65;12.00;;;;;;;;;;5073607;28;20063;-65
2023/04/09 05:26:09;;;;;;;42.72;13.07;;;;;;;;;;5073818;28;20229;-69
2023/04/09 05:28:35;;;;;;;35.63;12.15;;;;;;;;;;5073644;28;20048;-64
2023/04/09 05:31:00;;;;;;;35.20;11.77;;;;;;;;;;5073692;28;20073;-64
2023/04/09 05:33:26;;;;;;;75.68;15.95;;;;;;;;;;5073696;28;20356;-64
2023/04/09 05:35:51;;;;;;;33.50;12.50;;;;;;;;;;5073508;28;20043;-65
2023/04/09 05:38:17;;;;;;;37.92;12.60;;;;;;;;;;5073363;28;20024;-64
2023/04/09 05:40:44;;;;;;;36.30;10.95;;;;;;;;;;5073578;28;20037;-64
2023/04/09 05:43:10;;;;;;;45.30;13.50;;;;;;;;;;5073217;28;20489;-67
2023/04/09 05:45:35;;;;;;;41.22;14.07;;;;;;;;;;5073396;28;20024;-64
2023/04/09 05:48:01;;;;;;;43.05;12.80;;;;;;;;;;5072911;28;20032;-65
2023/04/09 05:50:26;;;;;;;47.78;12.95;;;;;;;;;;5055201;28;20028;-67
2023/04/09 05:52:52;;;;;;;48.30;13.32;;;;;;;;;;5073320;28;20381;-65
2023/04/09 05:55:17;;;;;;;43.70;13.18;;;;;;;;;;5073210;28;20043;-64
2023/04/09 05:57:44;;;;;;;41.00;13.23;;;;;;;;;;5072692;28;20379;-67
2023/04/09 06:00:10;;;;;;;42.58;13.07;;;;;;;;;;5072902;28;20057;-71
2023/04/09 06:02:35;;;;;;;44.58;13.98;;;;;;;;;;5072899;28;20505;-70
2023/04/09 06:05:01;;;;;;;54.63;13.20;;;;;;;;;;5073006;28;20024;-67
2023/04/09 06:07:26;;;;;;;42.45;13.35;;;;;;;;;;5072979;28;20021;-69
2023/04/09 06:09:53;;;;;;;45.13;13.85;;;;;;;;;;5072956;28;20059;-67
2023/04/09 06:12:19;;;;;;;50.53;12.73;;;;;;;;;;5072725;28;20031;-75
2023/04/09 06:14:47;;;;;;;50.97;14.02;;;;;;;;;;5073072;28;20029;-76
2023/04/09 06:17:12;;;;;;;46.70;13.98;;;;;;;;;;5073005;28;20114;-71
2023/04/09 06:19:38;;;;;;;39.55;13.55;;;;;;;;;;5072467;28;20059;-73
2023/04/09 06:22:04;;;;;;;36.35;13.40;;;;;;;;;;5072714;28;20027;-64
2023/04/09 06:24:31;;;;;;;49.25;14.05;;;;;;;;;;5072580;28;20447;-68
2023/04/09 06:26:57;;;;;;;49.08;14.68;;;;;;;;;;5072481;28;20067;-69
2023/04/09 06:29:22;;;;;;;45.80;13.68;;;;;;;;;;5072510;28;20428;-76
2023/04/09 06:31:49;;;;;;;45.75;13.63;;;;;;;;;;5072368;28;20505;-74
2023/04/09 06:34:14;;;;;;;41.58;13.23;;;;;;;;;;5072486;28;20029;-75
2023/04/09 06:36:40;;;;;;;45.08;13.80;;;;;;;;;;5054343;28;20397;-75
2023/04/09 06:39:06;;;;;;;49.97;14.73;;;;;;;;;;5072143;28;20036;-76
2023/04/09 06:41:31;;;;;;;48.53;14.43;;;;;;;;;;5072195;28;20056;-74
2023/04/09 06:43:57;;;;;;;49.17;14.93;;;;;;;;;;5072110;28;20112;-76
2023/04/09 06:46:23;;;;;;;51.15;15.10;;;;;;;;;;5072344;28;20032;-76
2023/04/09 06:48:49;;;;;;;42.67;14.52;;;;;;;;;;5071894;28;20025;-72
2023/04/09 06:51:14;;;;;;;46.50;16.05;;;;;;;;;;5072294;28;20125;-72
2023/04/09 06:53:40;;;;;;;48.78;15.95;;;;;;;;;;5072193;28;20028;-71
2023/04/09 06:56:06;;;;;;;41.35;16.20;;;;;;;;;;5071760;28;20059;-68
2023/04/09 06:58:31;;;;;;;48.70;17.52;;;;;;;;;;5072012;28;20024;-66
2023/04/09 07:00:57;;;;;;;44.22;14.65;;;;;;;;;;5067122;28;20033;-65
2023/04/09 07:03:22;;;;;;;37.30;13.68;;;;;;;;;;5052165;28;20021;-68
2023/04/09 07:05:48;;;;;;;37.92;13.80;;;;;;;;;;5051395;28;20053;-69
2023/04/09 07:08:14;;;;;;;37.92;13.55;;;;;;;;;;5051440;28;20063;-70
2023/04/09 07:10:39;;;;;;;39.20;14.18;;;;;;;;;;5051829;28;20059;-69
2023/04/09 07:13:05;;;;;;;35.60;13.82;;;;;;;;;;5051931;28;20029;-69
2023/04/09 07:15:31;;;;;;;34.20;12.57;;;;;;;;;;5051683;28;20033;-76
2023/04/09 07:17:56;;;;;;;40.53;13.77;;;;;;;;;;5051532;28;20545;-70
2023/04/09 07:20:22;;;;;;;35.58;13.50;;;;;;;;;;5051939;28;20025;-69
2023/04/09 07:22:48;;;;;;;37.20;14.00;;;;;;;;;;5051659;28;20040;-71
2023/04/09 07:25:14;;;;;;;35.05;13.23;;;;;;;;;;5048407;28;20049;-71
2023/04/09 07:27:40;;;;;;;35.90;13.43;;;;;;;;;;5049094;28;20419;-67
2023/04/09 07:30:06;;;;;;;32.00;12.35;;;;;;;;;;5051297;28;20029;-66
2023/04/09 07:32:31;;;;;;;27.63;12.13;;;;;;;;;;5048427;28;20025;-64
2023/04/09 07:34:58;;;;;;;38.33;14.05;;;;;;;;;;5051105;28;20028;-64
2023/04/09 07:37:23;;;;;;;38.13;13.68;;;;;;;;;;5050958;28;20025;-68
2023/04/09 07:39:50;;;;;;;29.10;11.90;;;;;;;;;;5050998;28;20036;-74
2023/04/09 07:42:15;;;;;;;27.65;11.27;;;;;;;;;;5051645;28;20028;-65
2023/04/09 07:44:41;;;;;;;35.10;12.98;;;;;;;;;;5051887;28;20368;-72
2023/04/09 07:47:07;;;;;;;28.67;11.80;;;;;;;;;;5052597;28;20063;-64
2023/04/09 07:49:34;;;;;;;34.40;11.80;;;;;;;;;;5051582;28;20484;-64
2023/04/09 07:52:00;;;;;;;25.30;10.38;;;;;;;;;;5051461;28;20033;-64
2023/04/09 07:54:25;;;;;;;26.35;11.35;;;;;;;;;;5051301;28;20109;-64
2023/04/09 07:56:51;;;;;;;34.08;13.65;;;;;;;;;;5051507;28;20096;-64
2023/04/09 07:59:16;;;;;;;27.98;11.13;;;;;;;;;;5070052;28;20049;-65
2023/04/09 08:01:42;;;;;;;24.90;10.23;;;;;;;;;;5071697;28;20399;-65
2023/04/09 08:04:08;;;;;;;30.38;11.00;;;;;;;;;;5071377;28;20028;-64
2023/04/09 08:06:35;;;;;;;32.75;11.23;;;;;;;;;;5071376;28;20112;-65
2023/04/09 08:09:00;;;;;;;56.38;27.73;;;;;;;;;;5070940;28;20024;-68
2023/04/09 08:11:26;;;;;;;29.77;12.63;;;;;;;;;;5071453;28;20372;-66
2023/04/09 08:13:51;;;;;;;32.65;11.65;;;;;;;;;;5071341;28;20028;-64
2023/04/09 08:16:17;;;;;;;31.52;12.25;;;;;;;;;;5071352;28;20058;-64
2023/04/09 08:18:42;;;;;;;27.00;10.52;;;;;;;;;;5071065;28;20543;-66
2023/04/09 08:21:08;;;;;;;36.97;10.85;;;;;;;;;;5053360;28;20493;-68
2023/04/09 08:23:33;;;;;;;29.35;10.80;;;;;;;;;;5069854;28;20024;-66
2023/04/09 08:25:59;;;;;;;28.70;10.18;;;;;;;;;;5051142;28;20024;-68
2023/04/09 08:28:24;;;;;;;30.05;10.20;;;;;;;;;;5054325;28;20361;-64
2023/04/09 08:30:49;;;;;;;33.15;11.15;;;;;;;;;;5054429;28;20051;-66
2023/04/09 08:33:15;;;;;;;28.98;10.13;;;;;;;;;;5054554;28;20036;-67
2023/04/09 08:35:41;;;;;;;26.98;10.68;;;;;;;;;;5054215;28;20032;-65
2023/04/09 08:38:06;;;;;;;27.17;10.10;;;;;;;;;;5054382;28;20041;-66
2023/04/09 08:40:35;;;;;;;26.55;9.68;;;;;;;;;;5054398;28;20041;-69
2023/04/09 08:43:05;;;;;;;24.23;9.88;;;;;;;;;;5054743;28;20036;-72
2023/04/09 08:45:31;;;;;;;22.88;10.43;;;;;;;;;;5054688;28;20104;-74
2023/04/09 08:47:58;;;;;;;30.88;11.38;;;;;;;;;;5054929;28;20120;-71
2023/04/09 08:50:26;;;;;;;30.17;10.50;;;;;;;;;;5054549;28;20032;-73
2023/04/09 08:52:52;;;;;;;24.85;9.18;;;;;;;;;;5054585;28;20021;-74
2023/04/09 08:55:18;;;;;;;23.40;8.85;;;;;;;;;;5054628;28;20043;-72
2023/04/09 08:57:43;;;;;;;26.58;9.05;;;;;;;;;;5060370;28;20028;-75
2023/04/09 09:00:09;;;;;;;20.33;8.80;;;;;;;;;;5072857;28;20049;-73
2023/04/09 09:02:35;;;;;;;29.42;9.00;;;;;;;;;;5073469;28;20089;-74
2023/04/09 09:05:01;;;;;;;26.73;10.18;;;;;;;;;;5073276;28;20028;-64
2023/04/09 09:07:30;;;;;;;29.08;9.30;;;;;;;;;;5072977;28;20478;-68
2023/04/09 09:09:58;;;;;;;30.00;10.32;;;;;;;;;;5073573;28;20028;-68
2023/04/09 09:12:40;;;;;;;25.83;9.07;;;;;;;;;;5073634;28;20036;-73
2023/04/09 09:15:27;;;;;;;26.73;8.98;;;;;;;;;;5073915;28;20033;-72
2023/04/09 09:17:57;;;;;;;25.30;9.40;;;;;;;;;;5073933;28;20024;-67
2023/04/09 09:20:24;;;;;;;29.67;9.40;;;;;;;;;;5073864;28;20513;-73
2023/04/09 09:22:51;;;;;;;26.83;9.10;;;;;;;;;;5073505;28;20497;-70
2023/04/09 09:25:16;;;;;;;24.40;8.93;;;;;;;;;;5073665;28;20080;-67
2023/04/09 09:27:42;;;;;;;25.27;9.05;;;;;;;;;;5073629;28;20032;-64
2023/04/09 09:30:19;;;;;;;36.75;9.73;;;;;;;;;;5073619;28;20033;-64
2023/04/09 09:32:44;;;;;;;26.25;9.35;;;;;;;;;;5073618;28;20032;-64
2023/04/09 09:35:10;;;;;;;23.27;8.55;;;;;;;;;;5073459;28;20024;-74
2023/04/09 09:37:35;;;;;;;22.75;8.35;;;;;;;;;;5073228;28;20025;-64
2023/04/09 09:40:01;;;;;;;26.65;9.38;;;;;;;;;;5073512;28;20029;-71
2023/04/09 09:42:26;;;;;;;21.02;9.00;;;;;;;;;;5073477;28;20425;-74
2023/04/09 09:44:54;;;;;;;29.58;10.75;;;;;;;;;;5073272;28;20029;-73
2023/04/09 09:47:20;;;;;;;26.50;9.82;;;;;;;;;;5073111;28;20240;-71
2023/04/09 09:49:49;;;;;;;26.60;9.65;;;;;;;;;;5072945;28;20028;-73
2023/04/09 09:52:19;;;;;;;25.60;8.68;;;;;;;;;;5073340;28;20047;-72
2023/04/09 09:54:51;;;;;;;23.33;9.00;;;;;;;;;;5072859;28;20029;-69
2023/04/09 09:57:19;;;;;;;20.80;9.52;;;;;;;;;;5088541;28;20147;-70
2023/04/09 09:59:57;;;;;;;18.95;8.35;;;;;;;;;;5072980;28;20238;-68
2023/04/09 10:02:29;;;;;;;30.65;9.18;;;;;;;;;;5073071;28;20040;-70
2023/04/09 10:04:59;;;;;;;26.35;9.20;;;;;;;;;;5072848;28;20033;-69
2023/04/09 10:07:25;;;;;;;19.52;8.27;;;;;;;;;;5073341;28;20021;-66
2023/04/09 10:09:53;;;;;;;23.02;8.52;;;;;;;;;;5055374;28;20024;-64
2023/04/09 10:12:24;;;;;;;22.83;8.32;;;;;;;;;;5073226;28;20510;-68
2023/04/09 10:14:51;;;;;;;25.92;9.73;;;;;;;;;;5073530;28;20112;-65
2023/04/09 10:17:18;;;;;;;19.05;8.20;;;;;;;;;;5072779;28;20429;-63
2023/04/09 10:19:48;;;;;;;21.42;8.68;;;;;;;;;;5072936;28;20047;-64
2023/04/09 10:22:18;;;;;;;34.13;9.48;;;;;;;;;;5072761;28;20424;-65
2023/04/09 10:24:45;;;;;;;25.48;8.48;;;;;;;;;;5072744;28;20029;-64
2023/04/09 10:27:12;;;;;;;29.23;8.73;;;;;;;;;;5072596;28;20035;-64
2023/04/09 10:29:46;;;;;;;28.85;9.45;;;;;;;;;;5072675;28;20052;-65
2023/04/09 10:32:16;;;;;;;28.52;9.35;;;;;;;;;;5072504;28;20513;-64
2023/04/09 10:34:43;;;;;;;23.52;8.55;;;;;;;;;;5072382;28;20555;-64
2023/04/09 10:37:29;;;;;;;28.85;9.32;;;;;;;;;;5072187;28;20394;-64
2023/04/09 10:39:56;;;;;;;28.50;9.32;;;;;;;;;;5071708;28;20055;-64
2023/04/09 10:42:26;;;;;;;28.92;9.10;;;;;;;;;;5072486;28;20486;-64
2023/04/09 10:45:12;;;;;;;33.97;10.40;;;;;;;;;;5072420;28;20512;-64
2023/04/09 10:47:40;;;;;;;23.55;8.88;;;;;;;;;;5071727;28;20124;-64
2023/04/09 10:50:16;;;;;;;28.38;10.68;;;;;;;;;;5071619;28;20241;-64
2023/04/09 10:52:43;;;;;;;27.02;8.90;;;;;;;;;;5071953;28;20060;-65
2023/04/09 10:55:09;;;;;;;24.63;9.65;;;;;;;;;;5071910;28;20479;-67
2023/04/09 10:57:35;;;;;;;31.55;9.32;;;;;;;;;;5071855;28;20111;-69
2023/04/09 11:00:00;;;;;;;31.15;9.93;;;;;;;;;;5071708;28;20525;-64
2023/04/09 11:02:38;;;;;;;27.67;10.38;;;;;;;;;;5072010;28;20395;-64
2023/04/09 11:05:10;;;;;;;36.53;10.30;;;;;;;;;;5072098;28;20024;-65
2023/04/09 11:07:41;;;;;;;35.42;12.65;;;;;;;;;;5071780;28;20402;-67
2023/04/09 11:10:07;;;;;;;31.63;10.40;;;;;;;;;;5072016;28;20035;-65
2023/04/09 11:12:32;;;;;;;25.63;8.63;;;;;;;;;;5071979;28;20035;-68
2023/04/09 11:14:58;;;;;;;22.58;8.68;;;;;;;;;;5072166;28;20386;-64
2023/04/09 11:17:24;;;;;;;20.52;8.60;;;;;;;;;;5053887;28;20106;-73
2023/04/09 11:19:49;;;;;;;20.23;7.75;;;;;;;;;;5072087;28;20020;-73
2023/04/09 11:22:15;;;;;;;28.23;8.57;;;;;;;;;;5071907;28;20043;-74
2023/04/09 11:24:42;;;;;;;24.65;8.63;;;;;;;;;;5072113;28;20039;-74
2023/04/09 11:27:07;;;;;;;16.42;7.35;;;;;;;;;;5073221;28;20149;-70
2023/04/09 11:29:36;;;;;;;22.27;8.52;;;;;;;;;;5065869;28;20068;-67
2023/04/09 11:32:04;;;;;;;21.77;8.15;;;;;;;;;;5051871;28;20107;-71
2023/04/09 11:34:30;;;;;;;18.63;9.35;;;;;;;;;;5053340;28;20104;-65
2023/04/09 11:36:57;;;;;;;21.08;8.43;;;;;;;;;;5034540;28;20033;-66
2023/04/09 11:39:23;;;;;;;19.80;8.18;;;;;;;;;;5052374;28;20021;-63
2023/04/09 11:41:49;;;;;;;22.42;9.32;;;;;;;;;;5052193;28;20074;-62
2023/04/09 11:44:14;;;;;;;18.55;8.30;;;;;;;;;;5052105;28;20029;-62
2023/04/09 11:46:40;;;;;;;28.98;13.27;;;;;;;;;;5051742;28;20056;-64
2023/04/09 11:49:06;;;;;;;17.63;7.82;;;;;;;;;;5051925;28;20394;-64
2023/04/09 11:51:34;;;;;;;17.08;7.28;;;;;;;;;;5051788;28;20108;-67
2023/04/09 11:54:04;;;;;;;17.50;8.02;;;;;;;;;;5051699;28;20100;-64
2023/04/09 11:56:30;;;;;;;15.75;7.22;;;;;;;;;;5052011;28;20480;-68
2023/04/09 11:58:56;;;;;;;18.05;7.65;;;;;;;;;;5067480;28;20123;-65
2023/04/09 12:01:21;;;;;;;19.88;7.85;;;;;;;;;;5073762;28;20127;-63
2023/04/09 12:03:56;;;;;;;15.90;7.38;;;;;;;;;;5075354;28;20387;-63
2023/04/09 12:06:23;;;;;;;21.90;7.68;;;;;;;;;;5075327;28;20130;-63
2023/04/09 12:08:53;;;;;;;22.45;8.20;;;;;;;;;;5075290;28;20028;-66
2023/04/09 12:11:19;;;;;;;16.58;7.57;;;;;;;;;;5075090;28;20419;-62
2023/04/09 12:13:45;;;;;;;19.63;7.57;;;;;;;;;;5075159;28;20032;-65
2023/04/09 12:16:11;;;;;;;18.73;8.45;;;;;;;;;;5074788;28;20035;-63
2023/04/09 12:18:37;;;;;;;24.42;9.00;;;;;;;;;;5075398;28;20386;-66
2023/04/09 12:21:03;;;;;;;20.33;8.88;;;;;;;;;;5075262;28;20036;-65
2023/04/09 12:23:30;;;;;;;17.80;10.13;;;;;;;;;;5075309;28;20055;-63
2023/04/09 12:25:58;;;;;;;18.98;8.20;;;;;;;;;;5074949;28;20033;-63
2023/04/09 12:28:24;;;;;;;15.65;8.02;;;;;;;;;;5074896;28;20032;-62
2023/04/09 12:30:50;;;;;;;14.95;8.07;;;;;;;;;;5074672;28;20032;-63
2023/04/09 12:33:16;;;;;;;14.20;7.63;;;;;;;;;;5074979;28;20028;-63
2023/04/09 12:35:41;;;;;;;14.68;7.97;;;;;;;;;;5074614;28;20029;-62
2023/04/09 12:38:06;;;;;;;16.13;7.32;;;;;;;;;;5074754;28;20033;-63
2023/04/09 12:40:33;;;;;;;15.02;9.05;;;;;;;;;;5074693;28;20635;-63
2023/04/09 12:42:59;;;;;;;14.43;8.40;;;;;;;;;;5074649;28;20502;-63
2023/04/09 12:45:24;;;;;;;12.18;6.00;;;;;;;;;;5074641;28;20060;-63
2023/04/09 12:47:50;;;;;;;12.25;5.70;;;;;;;;;;5074698;28;20146;-65
2023/04/09 12:50:16;;;;;;;12.57;6.03;;;;;;;;;;5074732;28;20024;-63
2023/04/09 12:52:42;;;;;;;12.07;6.18;;;;;;;;;;5074814;28;20083;-67
2023/04/09 12:55:08;;;;;;;11.85;5.78;;;;;;;;;;5074737;28;20024;-63
2023/04/09 12:57:37;;;;;;;15.82;6.50;;;;;;;;;;5074380;28;20032;-64
2023/04/09 13:00:04;;;;;;;12.35;6.05;;;;;;;;;;5074231;28;20090;-62
2023/04/09 13:02:30;;;;;;;12.80;6.65;;;;;;;;;;5057067;28;20044;-63
2023/04/09 13:04:56;;;;;;;14.43;6.80;;;;;;;;;;5054360;28;20025;-62
2023/04/09 13:07:21;;;;;;;15.20;6.65;;;;;;;;;;5054512;28;20387;-65
2023/04/09 13:09:49;;;;;;;13.93;6.65;;;;;;;;;;5054252;28;20464;-63
2023/04/09 13:12:15;;;;;;;11.88;5.75;;;;;;;;;;5053565;28;20111;-63
2023/04/09 13:14:43;;;;;;;14.05;7.22;;;;;;;;;;5054510;28;20110;-63
2023/04/09 13:17:08;;;;;;;14.80;6.82;;;;;;;;;;5054356;28;20396;-65
2023/04/09 13:19:34;;;;;;;13.82;7.22;;;;;;;;;;5054321;28;20021;-62
2023/04/09 13:21:59;;;;;;;15.60;6.10;;;;;;;;;;5054063;28;20025;-63
2023/04/09 13:24:25;;;;;;;13.95;6.43;;;;;;;;;;5053734;28;20032;-64
2023/04/09 13:26:51;;;;;;;11.27;5.53;;;;;;;;;;5053786;28;20028;-66
2023/04/09 13:29:16;;;;;;;12.77;5.10;;;;;;;;;;5053241;28;20123;-68
2023/04/09 13:31:42;;;;;;;10.93;5.63;;;;;;;;;;5053666;28;20033;-65
2023/04/09 13:34:07;;;;;;;12.70;5.40;;;;;;;;;;5053657;28;20025;-65
2023/04/09 13:36:33;;;;;;;13.90;6.00;;;;;;;;;;5053717;28;20043;-64
2023/04/09 13:39:03;;;;;;;13.68;5.95;;;;;;;;;;5053652;28;20482;-63
2023/04/09 13:41:32;;;;;;;8.40;4.97;;;;;;;;;;5053647;28;20047;-62
2023/04/09 13:43:59;;;;;;;9.20;5.13;;;;;;;;;;5053121;28;20116;-63
2023/04/09 13:46:24;;;;;;;9.07;4.68;;;;;;;;;;5053160;28;20029;-64
2023/04/09 13:48:50;;;;;;;9.35;4.85;;;;;;;;;;5053477;28;20476;-65
2023/04/09 13:51:15;;;;;;;8.07;3.97;;;;;;;;;;5053189;28;20052;-66
2023/04/09 13:53:41;;;;;;;9.93;5.00;;;;;;;;;;5053035;28;20108;-71
2023/04/09 13:56:06;;;;;;;8.13;4.43;;;;;;;;;;5053286;28;20394;-69
2023/04/09 13:58:32;;;;;;;9.18;4.80;;;;;;;;;;5065644;28;20483;-73
2023/04/09 14:00:57;;;;;;;11.60;4.60;;;;;;;;;;5072898;28;20146;-73
2023/04/09 14:03:22;;;;;;;8.77;5.18;;;;;;;;;;5070349;28;20060;-62
2023/04/09 14:05:48;;;;;;;13.18;5.18;;;;;;;;;;5052895;28;20027;-71
2023/04/09 14:08:15;;;;;;;7.70;4.85;;;;;;;;;;5052387;28;20060;-74
2023/04/09 14:10:40;;;;;;;9.13;4.75;;;;;;;;;;5052570;28;20024;-75
2023/04/09 14:13:09;;;;;;;9.95;5.00;;;;;;;;;;5052812;28;20021;-75
2023/04/09 14:15:35;;;;;;;12.68;5.05;;;;;;;;;;5052557;28;20032;-74
2023/04/09 14:18:01;;;;;;;12.73;5.15;;;;;;;;;;5052698;28;20117;-63
2023/04/09 14:20:27;;;;;;;11.45;5.75;;;;;;;;;;5052724;28;20113;-73